Time;durP1;ratioP1;P1;durP2;ratioP2;P2;SDS_P1;SDS_P2;PMS_P1;PMS_P2;Temp;Humidity;BMP_temperature;BMP_pressure;BME280_temperature;BME280_humidity;BME280_pressure;Samples;Min_cycle;Max_cycle;Signal;HPM_P1;HPM_P2
2022/06/03 00:00:56;;;;;;;1123.55;999.90;;;14.70;99.90;;;;;;5028440;28;20673;-71
2022/06/03 00:03:47;;;;;;;1127.53;999.90;;;14.70;99.90;;;;;;5028662;28;20194;-70
2022/06/03 00:06:12;;;;;;;1120.85;999.90;;;14.60;99.90;;;;;;5047223;28;21485;-70
2022/06/03 00:08:59;;;;;;;1135.60;999.90;;;14.60;99.90;;;;;;5032965;28;20197;-69
2022/06/03 00:12:04;;;;;;;1141.38;999.90;;;14.50;99.90;;;;;;5031182;28;20241;-70
2022/06/03 00:14:48;;;;;;;1134.00;999.90;;;14.60;99.90;;;;;;5032006;28;20183;-69
2022/06/03 00:17:52;;;;;;;1139.47;999.90;;;14.50;99.90;;;;;;5022606;28;20186;-70
2022/06/03 00:20:39;;;;;;;1124.72;999.90;;;14.50;99.90;;;;;;5038674;28;20249;-70
2022/06/03 00:23:27;;;;;;;1120.57;999.90;;;14.50;99.90;;;;;;5041578;28;20179;-70
2022/06/03 00:26:40;;;;;;;1113.40;999.90;;;14.30;99.90;;;;;;5032064;28;20195;-69
2022/06/03 00:29:33;;;;;;;1107.15;999.90;;;14.30;99.90;;;;;;5030876;28;20223;-69
2022/06/03 00:32:20;;;;;;;1104.95;999.90;;;14.30;99.90;;;;;;5040140;28;20178;-69
2022/06/03 00:34:49;;;;;;;1102.85;999.90;;;14.30;99.90;;;;;;5015912;28;20203;-70
2022/06/03 00:37:48;;;;;;;1095.78;999.90;;;14.30;99.90;;;;;;5019024;28;20522;-70
2022/06/03 00:40:26;;;;;;;1083.65;999.17;;;14.30;99.90;;;;;;5029211;28;20194;-69
2022/06/03 00:43:14;;;;;;;1079.03;998.35;;;14.20;99.90;;;;;;5039934;28;20178;-71
2022/06/03 00:45:59;;;;;;;1063.85;988.63;;;14.20;99.90;;;;;;5030714;28;20198;-69
2022/06/03 00:48:52;;;;;;;1066.55;991.38;;;14.10;99.90;;;;;;5033411;28;20269;-70
2022/06/03 00:51:36;;;;;;;1057.28;982.83;;;14.20;99.90;;;;;;5019860;28;20171;-69
2022/06/03 00:54:28;;;;;;;1049.75;976.70;;;14.10;99.90;;;;;;5030099;28;20174;-69
2022/06/03 00:56:59;;;;;;;1049.45;976.85;;;14.00;99.90;;;;;;5031525;28;20179;-70
2022/06/03 00:59:53;;;;;;;1031.53;960.28;;;14.00;99.90;;;;;;5027758;28;20275;-69
2022/06/03 01:02:50;;;;;;;1012.65;943.80;;;14.00;99.90;;;;;;5024577;28;20195;-69
2022/06/03 01:05:50;;;;;;;1007.72;939.72;;;14.00;99.90;;;;;;5046431;28;20188;-69
2022/06/03 01:08:38;;;;;;;1000.28;933.35;;;14.00;99.90;;;;;;5015595;28;20189;-69
2022/06/03 01:11:04;;;;;;;998.05;931.38;;;13.90;99.90;;;;;;5030131;28;20182;-70
2022/06/03 01:13:40;;;;;;;1004.00;936.58;;;13.90;99.90;;;;;;5051712;28;20232;-70
2022/06/03 01:16:42;;;;;;;990.28;924.90;;;13.90;99.90;;;;;;5022150;28;20249;-70
2022/06/03 01:19:25;;;;;;;990.70;924.72;;;13.80;99.90;;;;;;5035592;28;20186;-69
2022/06/03 01:21:56;;;;;;;1004.08;936.65;;;13.80;99.90;;;;;;5026560;28;20599;-70
2022/06/03 01:25:00;;;;;;;995.70;929.50;;;13.90;99.90;;;;;;5032350;28;20233;-69
2022/06/03 01:27:50;;;;;;;1001.80;934.78;;;13.80;99.90;;;;;;5035501;28;20221;-69
2022/06/03 01:30:21;;;;;;;1007.92;940.15;;;13.80;99.90;;;;;;5036766;28;20234;-69
2022/06/03 01:33:07;;;;;;;1017.05;948.22;;;13.80;99.90;;;;;;5025942;28;20229;-69
2022/06/03 01:35:54;;;;;;;1005.83;937.88;;;13.70;99.90;;;;;;5059768;28;20179;-69
2022/06/03 01:38:49;;;;;;;989.53;924.00;;;13.70;99.90;;;;;;5057456;28;20184;-70
2022/06/03 01:41:51;;;;;;;985.92;920.65;;;13.80;99.90;;;;;;5034073;28;20194;-69
2022/06/03 01:44:29;;;;;;;1001.63;934.08;;;13.70;99.90;;;;;;5030756;28;20204;-69
2022/06/03 01:47:03;;;;;;;1011.33;942.95;;;13.70;99.90;;;;;;5032587;28;20535;-70
2022/06/03 01:50:22;;;;;;;994.90;928.63;;;13.70;99.90;;;;;;5056799;28;20189;-70
2022/06/03 01:53:07;;;;;;;1010.92;943.15;;;13.70;99.90;;;;;;5034097;28;20191;-70
2022/06/03 01:55:54;;;;;;;1013.78;945.22;;;13.60;99.90;;;;;;5031756;28;20190;-70
2022/06/03 01:58:40;;;;;;;998.35;931.45;;;13.60;99.90;;;;;;5046821;28;20200;-70
2022/06/03 02:01:27;;;;;;;989.75;923.95;;;13.60;99.90;;;;;;5036140;28;20218;-69
2022/06/03 02:04:30;;;;;;;1007.38;939.88;;;13.60;99.90;;;;;;5042009;28;20182;-70
2022/06/03 02:07:17;;;;;;;981.80;917.08;;;13.50;99.90;;;;;;5017778;28;20209;-69
2022/06/03 02:10:05;;;;;;;991.95;926.38;;;13.40;99.90;;;;;;5037947;28;20179;-69
2022/06/03 02:12:51;;;;;;;989.28;923.33;;;13.40;99.90;;;;;;5031723;28;20191;-70
2022/06/03 02:15:35;;;;;;;992.95;926.60;;;13.40;99.90;;;;;;5037969;28;20644;-70
2022/06/03 02:18:26;;;;;;;1000.75;934.60;;;13.30;99.90;;;;;;5032088;28;20211;-70
2022/06/03 02:21:07;;;;;;;1020.63;951.78;;;13.40;99.90;;;;;;5033837;28;20574;-70
2022/06/03 02:23:48;;;;;;;1005.85;938.30;;;13.40;99.90;;;;;;5043992;28;20182;-70
2022/06/03 02:26:30;;;;;;;988.67;923.63;;;13.40;99.90;;;;;;5024987;28;20213;-70
2022/06/03 02:30:24;;;;;;;984.30;919.85;;;13.30;99.90;;;;;;5030434;28;20198;-69
2022/06/03 02:32:08;;;;;;;984.35;919.42;;;13.20;99.90;;;;;;5021771;28;20544;-69
2022/06/03 02:34:40;;;;;;;1003.13;936.40;;;13.20;99.90;;;;;;5017653;28;20183;-69
2022/06/03 02:37:43;;;;;;;991.90;926.20;;;13.10;99.90;;;;;;5026285;28;20182;-69
2022/06/03 02:40:20;;;;;;;1003.75;936.65;;;13.10;99.90;;;;;;5021794;28;20205;-69
2022/06/03 02:43:25;;;;;;;1005.35;938.08;;;13.10;99.90;;;;;;5034769;28;20620;-70
2022/06/03 02:46:29;;;;;;;995.33;929.47;;;13.00;99.90;;;;;;5037018;28;20565;-69
2022/06/03 02:49:21;;;;;;;974.20;910.58;;;13.00;99.90;;;;;;5040236;28;20696;-69
2022/06/03 02:52:14;;;;;;;969.72;906.42;;;13.10;99.90;;;;;;5020224;28;20209;-70
2022/06/03 02:54:58;;;;;;;943.33;882.92;;;13.10;99.90;;;;;;5049793;28;20206;-70
2022/06/03 02:57:56;;;;;;;946.45;886.25;;;13.10;99.90;;;;;;5029450;28;20190;-70
2022/06/03 03:00:59;;;;;;;935.35;875.72;;;13.10;99.90;;;;;;5024275;28;20224;-70
2022/06/03 03:04:17;;;;;;;928.30;869.38;;;13.10;99.90;;;;;;5045790;28;20193;-69
2022/06/03 03:07:09;;;;;;;916.63;859.15;;;13.00;99.90;;;;;;5005686;28;20300;-69
2022/06/03 03:09:53;;;;;;;920.50;862.22;;;13.00;99.90;;;;;;5034044;28;20175;-69
2022/06/03 03:12:37;;;;;;;904.53;848.38;;;13.00;99.90;;;;;;5031001;28;20191;-70
2022/06/03 03:15:21;;;;;;;836.80;786.90;;;13.00;99.90;;;;;;5045682;28;20183;-70
2022/06/03 03:18:18;;;;;;;752.30;710.03;;;13.00;99.90;;;;;;5035015;28;20187;-69
2022/06/03 03:21:08;;;;;;;694.72;657.00;;;13.00;99.90;;;;;;5038221;28;20198;-70
2022/06/03 03:23:46;;;;;;;705.17;666.63;;;13.00;99.90;;;;;;5038573;28;20194;-69
2022/06/03 03:26:19;;;;;;;775.45;730.97;;;13.00;99.90;;;;;;5020357;28;20233;-69
2022/06/03 03:28:56;;;;;;;784.92;739.40;;;13.00;99.90;;;;;;5041864;28;20646;-70
2022/06/03 03:31:27;;;;;;;787.45;742.05;;;13.00;99.90;;;;;;5033604;28;20179;-69
2022/06/03 03:34:27;;;;;;;809.38;761.85;;;13.00;99.90;;;;;;5032690;28;20193;-69
2022/06/03 03:37:22;;;;;;;830.15;781.22;;;13.00;99.90;;;;;;5032892;28;20201;-70
2022/06/03 03:40:24;;;;;;;836.97;787.15;;;12.90;99.90;;;;;;5013007;28;20263;-70
2022/06/03 03:43:19;;;;;;;820.85;772.70;;;12.90;99.90;;;;;;5031657;28;20601;-70
2022/06/03 03:45:47;;;;;;;840.60;790.00;;;12.90;99.90;;;;;;5033574;28;20293;-70
2022/06/03 03:48:38;;;;;;;853.95;802.65;;;12.70;99.90;;;;;;5034318;28;20217;-69
2022/06/03 03:51:28;;;;;;;798.70;752.03;;;12.70;99.90;;;;;;5033916;28;20179;-69
2022/06/03 03:54:32;;;;;;;821.63;772.97;;;12.70;99.90;;;;;;5029748;28;20199;-69
2022/06/03 03:57:13;;;;;;;812.17;764.60;;;12.60;99.90;;;;;;5029859;28;20201;-69
2022/06/03 03:59:59;;;;;;;793.70;747.42;;;12.60;99.90;;;;;;5028187;28;20189;-69
2022/06/03 04:02:59;;;;;;;790.97;745.33;;;12.50;99.90;;;;;;5025430;28;20178;-70
2022/06/03 04:06:02;;;;;;;776.05;731.28;;;12.60;99.90;;;;;;5027143;28;20218;-69
2022/06/03 04:08:47;;;;;;;778.17;734.35;;;12.70;99.90;;;;;;5025061;28;20181;-70
2022/06/03 04:11:44;;;;;;;776.53;732.53;;;12.70;99.90;;;;;;5028912;28;20210;-69
2022/06/03 04:14:59;;;;;;;688.38;652.35;;;12.70;99.90;;;;;;5023525;28;20190;-70
2022/06/03 04:17:49;;;;;;;754.20;712.70;;;12.70;99.90;;;;;;5033849;28;20691;-69
2022/06/03 04:20:25;;;;;;;744.28;703.22;;;12.70;99.90;;;;;;5046343;28;20193;-70
2022/06/03 04:23:15;;;;;;;811.38;763.67;;;12.80;99.90;;;;;;5036768;28;20196;-69
2022/06/03 04:25:58;;;;;;;778.53;733.75;;;12.80;99.90;;;;;;5050265;28;20199;-70
2022/06/03 04:28:50;;;;;;;778.22;733.53;;;12.80;99.90;;;;;;5047676;28;20186;-69
2022/06/03 04:31:38;;;;;;;751.63;710.00;;;12.80;99.90;;;;;;5020530;28;20265;-68
2022/06/03 04:34:21;;;;;;;738.90;697.25;;;12.80;99.90;;;;;;5021901;28;20278;-69
2022/06/03 04:37:24;;;;;;;687.65;650.85;;;12.80;99.90;;;;;;5030720;28;20238;-68
2022/06/03 04:40:24;;;;;;;675.15;639.58;;;12.70;99.90;;;;;;5047705;28;20206;-71
2022/06/03 04:43:26;;;;;;;658.97;625.03;;;12.70;99.90;;;;;;5034829;28;20333;-70
2022/06/03 04:46:10;;;;;;;673.30;638.22;;;12.80;99.90;;;;;;5036254;28;20664;-69
2022/06/03 04:48:51;;;;;;;661.25;626.58;;;12.80;99.90;;;;;;5043188;28;20183;-69
2022/06/03 04:51:29;;;;;;;638.58;605.75;;;13.00;99.90;;;;;;5027477;28;20517;-69
2022/06/03 04:54:16;;;;;;;609.70;578.80;;;13.10;99.90;;;;;;5042563;28;20182;-69
2022/06/03 04:57:06;;;;;;;624.75;591.92;;;13.20;99.90;;;;;;5030868;28;20183;-68
2022/06/03 05:00:09;;;;;;;603.45;573.63;;;13.00;99.90;;;;;;5027016;28;20197;-69
2022/06/03 05:03:02;;;;;;;601.20;572.13;;;12.90;99.90;;;;;;5026840;28;20654;-68
2022/06/03 05:05:30;;;;;;;657.40;622.38;;;13.00;99.90;;;;;;5020002;28;20183;-69
2022/06/03 05:08:24;;;;;;;584.70;556.58;;;13.10;99.90;;;;;;5018788;28;20185;-69
2022/06/03 05:11:12;;;;;;;566.33;538.28;;;13.20;99.90;;;;;;5043618;28;20548;-70
2022/06/03 05:14:12;;;;;;;544.13;517.80;;;13.20;99.90;;;;;;5039063;28;20181;-69
2022/06/03 05:17:22;;;;;;;580.30;551.03;;;13.20;99.90;;;;;;5052201;28;20199;-69
2022/06/03 05:20:04;;;;;;;498.60;475.73;;;13.60;99.90;;;;;;5036016;28;20182;-69
2022/06/03 05:23:03;;;;;;;607.10;576.92;;;13.70;99.90;;;;;;5032021;28;20197;-70
2022/06/03 05:25:44;;;;;;;564.47;537.03;;;13.70;99.90;;;;;;5030681;28;20232;-69
2022/06/03 05:28:09;;;;;;;538.85;513.50;;;13.50;99.90;;;;;;5035830;28;20580;-69
2022/06/03 05:30:47;;;;;;;611.83;581.78;;;13.40;99.90;;;;;;5060746;28;20278;-70
2022/06/03 05:33:24;;;;;;;571.30;542.65;;;13.50;99.90;;;;;;5040222;28;20185;-70
2022/06/03 05:36:12;;;;;;;633.10;601.40;;;13.60;99.90;;;;;;5054803;28;20198;-69
2022/06/03 05:39:04;;;;;;;613.08;582.25;;;13.70;99.90;;;;;;5021163;28;20566;-70
2022/06/03 05:44:50;;;;;;;575.65;547.75;;;13.90;99.90;;;;;;5034481;28;20670;-70
2022/06/03 05:47:29;;;;;;;556.15;530.15;;;14.10;99.90;;;;;;5050718;28;20212;-70
2022/06/03 05:50:04;;;;;;;520.65;496.77;;;14.20;99.90;;;;;;5035879;28;20229;-69
2022/06/03 05:52:30;;;;;;;563.38;536.67;;;14.10;99.90;;;;;;5035567;28;20181;-69
2022/06/03 05:55:16;;;;;;;506.63;483.45;;;14.00;99.90;;;;;;5045805;28;20201;-70
2022/06/03 05:58:18;;;;;;;552.00;525.88;;;13.90;99.90;;;;;;5026385;28;20183;-72
2022/06/03 06:01:03;;;;;;;534.30;509.40;;;13.90;99.90;;;;;;5037721;28;20178;-71
2022/06/03 06:03:39;;;;;;;491.60;469.17;;;14.30;99.90;;;;;;5048612;28;20572;-80
2022/06/03 06:06:33;;;;;;;508.85;485.75;;;14.30;99.90;;;;;;5036124;28;20201;-78
2022/06/03 06:09:11;;;;;;;418.58;399.00;;;14.30;99.90;;;;;;5028194;28;20179;-77
2022/06/03 06:12:05;;;;;;;425.88;406.65;;;14.50;99.90;;;;;;5035447;28;20567;-75
2022/06/03 06:15:08;;;;;;;415.33;397.25;;;14.60;99.90;;;;;;5044168;28;20182;-73
2022/06/03 06:18:07;;;;;;;407.75;389.35;;;14.60;99.90;;;;;;5024596;28;20178;-72
2022/06/03 06:20:51;;;;;;;276.48;263.75;;;14.80;99.90;;;;;;5029856;28;20225;-72
2022/06/03 06:23:19;;;;;;;381.15;364.50;;;14.90;99.90;;;;;;5025763;28;20221;-74
2022/06/03 06:26:04;;;;;;;365.60;348.75;;;15.20;99.90;;;;;;5025840;28;20215;-76
2022/06/03 06:28:50;;;;;;;320.52;305.80;;;15.30;99.90;;;;;;5028014;28;20182;-78
2022/06/03 06:31:40;;;;;;;258.73;246.20;;;15.60;99.90;;;;;;5022653;28;20199;-77
2022/06/03 06:34:23;;;;;;;213.57;202.90;;;15.70;99.90;;;;;;5033045;28;20193;-74
2022/06/03 06:37:01;;;;;;;287.00;272.65;;;15.80;99.90;;;;;;5033932;28;20500;-79
2022/06/03 06:39:39;;;;;;;338.88;323.23;;;15.90;99.90;;;;;;5028258;28;20520;-74
2022/06/03 06:42:23;;;;;;;278.48;266.15;;;15.90;99.90;;;;;;5023731;28;20175;-74
2022/06/03 06:45:02;;;;;;;401.23;382.25;;;16.20;99.90;;;;;;5032946;28;20197;-76
2022/06/03 06:47:35;;;;;;;409.58;389.85;;;16.40;99.90;;;;;;5030813;28;20229;-73
2022/06/03 06:50:12;;;;;;;643.33;608.72;;;16.70;99.90;;;;;;5022765;28;20183;-76
2022/06/03 06:52:48;;;;;;;650.17;614.28;;;17.30;99.90;;;;;;5022375;28;20178;-76
2022/06/03 06:55:26;;;;;;;691.40;652.45;;;18.70;99.90;;;;;;5021494;28;20186;-75
2022/06/03 06:57:56;;;;;;;643.35;608.50;;;19.90;99.90;;;;;;5033641;28;20274;-77
2022/06/03 07:00:34;;;;;;;707.58;666.92;;;20.90;99.90;;;;;;5017997;28;20191;-75
2022/06/03 07:03:17;;;;;;;683.85;645.05;;;22.00;99.90;;;;;;5019410;28;20233;-77
2022/06/03 07:06:17;;;;;;;752.55;708.63;;;22.70;99.90;;;;;;5013834;28;20214;-77
2022/06/03 07:08:50;;;;;;;711.33;670.90;;;23.90;99.90;;;;;;5021796;28;20184;-76
2022/06/03 07:11:27;;;;;;;686.95;647.50;;;24.20;99.90;;;;;;5021925;28;20178;-78
2022/06/03 07:14:03;;;;;;;793.22;745.65;;;24.60;99.90;;;;;;5033616;28;20179;-76
2022/06/03 07:20:13;;;;;;;836.97;786.05;;;25.80;99.90;;;;;;5027952;28;20228;-77
2022/06/03 07:22:56;;;;;;;840.45;788.88;;;25.30;99.90;;;;;;5018539;28;20251;-76
2022/06/03 07:25:54;;;;;;;826.50;775.88;;;25.20;99.90;;;;;;5033701;28;20178;-76
2022/06/03 07:28:42;;;;;;;817.45;767.95;;;26.00;99.90;;;;;;5014761;28;20262;-76
2022/06/03 07:31:17;;;;;;;852.38;799.42;;;26.70;99.90;;;;;;5030136;28;20627;-78
2022/06/03 07:34:08;;;;;;;828.42;777.75;;;27.30;99.90;;;;;;5029971;28;20217;-77
2022/06/03 07:36:48;;;;;;;794.78;747.03;;;26.80;99.90;;;;;;5017227;28;20560;-76
2022/06/03 07:39:47;;;;;;;794.00;746.78;;;27.10;99.90;;;;;;5025604;28;20214;-77
2022/06/03 07:42:51;;;;;;;806.83;757.95;;;27.70;99.90;;;;;;5025449;28;20174;-77
2022/06/03 07:45:38;;;;;;;835.40;783.60;;;27.20;99.90;;;;;;5043554;28;20188;-77
2022/06/03 07:48:12;;;;;;;848.50;795.83;;;27.30;99.90;;;;;;5040625;28;20186;-77
2022/06/03 07:50:53;;;;;;;858.63;804.65;;;27.70;99.90;;;;;;5013973;28;20551;-78
2022/06/03 07:53:30;;;;;;;861.63;807.50;;;27.10;99.90;;;;;;5024238;28;20235;-79
2022/06/03 07:55:57;;;;;;;830.88;779.80;;;27.10;99.90;;;;;;5029594;28;20193;-80
2022/06/03 07:58:25;;;;;;;879.95;824.33;;;28.10;99.90;;;;;;5021632;28;20174;-79
2022/06/03 08:00:51;;;;;;;874.40;819.53;;;26.80;99.90;;;;;;5021263;28;20194;-79
2022/06/03 08:03:20;;;;;;;843.35;790.92;;;27.70;99.90;;;;;;5020509;28;20240;-81
2022/06/03 08:05:49;;;;;;;876.75;821.35;;;28.40;99.90;;;;;;5013919;28;20206;-79
2022/06/03 08:11:21;;;;;;;923.05;863.83;;;26.80;99.90;;;;;;5018342;28;20188;-80
2022/06/03 08:13:50;;;;;;;896.33;839.30;;;27.10;99.90;;;;;;5024867;28;20190;-80
2022/06/03 08:16:23;;;;;;;905.03;847.33;;;27.50;99.90;;;;;;5026743;28;20181;-76
2022/06/03 08:18:50;;;;;;;903.35;845.78;;;27.30;99.90;;;;;;5027718;28;20260;-75
2022/06/03 08:21:27;;;;;;;908.83;850.78;;;28.30;99.90;;;;;;5031923;28;20202;-81
2022/06/03 08:23:55;;;;;;;888.67;832.45;;;27.90;99.90;;;;;;5019264;28;20186;-74
2022/06/03 08:26:26;;;;;;;872.47;817.20;;;28.70;99.90;;;;;;5028250;28;20209;-79
2022/06/03 08:29:12;;;;;;;904.80;846.67;;;29.80;99.90;;;;;;5026769;28;20181;-78
2022/06/03 08:31:39;;;;;;;888.50;831.70;;;28.30;99.90;;;;;;5024031;28;20632;-81
2022/06/03 08:34:09;;;;;;;872.13;816.78;;;28.90;99.90;;;;;;5021166;28;20229;-82
2022/06/03 08:36:39;;;;;;;883.78;827.95;;;28.70;99.90;;;;;;5014408;28;20182;-77
2022/06/03 08:39:13;;;;;;;852.92;799.40;;;29.60;99.90;;;;;;5014280;28;20174;-80
2022/06/03 08:41:59;;;;;;;841.58;788.95;;;30.80;99.90;;;;;;5029086;28;20264;-79
2022/06/03 08:45:03;;;;;;;900.50;843.08;;;30.90;99.90;;;;;;5030781;28;20734;-77
2022/06/03 08:47:38;;;;;;;880.95;824.65;;;29.20;99.90;;;;;;5044193;28;20221;-79
2022/06/03 08:50:13;;;;;;;908.10;849.35;;;29.20;99.90;;;;;;5021600;28;20182;-81
2022/06/03 08:52:53;;;;;;;928.85;868.70;;;28.50;99.90;;;;;;5017373;28;20178;-82
2022/06/03 08:55:34;;;;;;;920.40;860.88;;;28.10;99.90;;;;;;5014649;28;20179;-81
2022/06/03 08:58:33;;;;;;;908.67;850.28;;;28.40;99.90;;;;;;5013671;28;20178;-82
2022/06/03 09:01:03;;;;;;;899.08;841.53;;;29.10;99.90;;;;;;4990465;28;20212;-82
2022/06/03 09:03:32;;;;;;;894.28;837.20;;;29.50;99.90;;;;;;5020813;28;20631;-77
2022/06/03 09:05:57;;;;;;;907.67;849.33;;;29.30;99.90;;;;;;5019729;28;20260;-81
2022/06/03 09:08:49;;;;;;;913.10;854.25;;;29.90;99.90;;;;;;5029828;28;20268;-80
2022/06/03 09:11:26;;;;;;;887.97;831.50;;;30.20;99.90;;;;;;5022533;28;20198;-81
2022/06/03 09:14:00;;;;;;;872.05;816.72;;;29.70;99.90;;;;;;5031308;28;20224;-79
2022/06/03 09:16:28;;;;;;;900.17;842.40;;;29.70;99.90;;;;;;5027603;28;20655;-81
2022/06/03 09:19:27;;;;;;;872.53;817.42;;;30.20;99.90;;;;;;5014243;28;20183;-78
2022/06/03 09:21:54;;;;;;;871.30;816.38;;;30.40;99.90;;;;;;5018557;28;20229;-79
2022/06/03 09:24:32;;;;;;;866.15;811.42;;;30.40;99.90;;;;;;5042183;28;20185;-77
2022/06/03 09:27:02;;;;;;;874.25;818.75;;;30.20;99.90;;;;;;5027599;28;20240;-78
2022/06/03 09:29:27;;;;;;;894.92;837.80;;;30.00;99.90;;;;;;5031714;28;20243;-81
2022/06/03 09:32:02;;;;;;;925.25;865.05;;;29.60;99.90;;;;;;5030136;28;20185;-79
2022/06/03 09:34:45;;;;;;;934.20;873.72;;;28.60;99.90;;;;;;5017802;28;20193;-78
2022/06/03 09:37:31;;;;;;;953.22;890.88;;;27.40;99.90;;;;;;5022941;28;20217;-75
2022/06/03 09:39:58;;;;;;;982.58;917.08;;;26.60;99.90;;;;;;5030363;28;20213;-79
2022/06/03 09:42:27;;;;;;;980.03;914.25;;;26.00;99.90;;;;;;5016422;28;20187;-76
2022/06/03 09:44:53;;;;;;;1007.65;939.13;;;25.50;99.90;;;;;;5036824;28;20184;-72
2022/06/03 09:47:22;;;;;;;995.80;929.25;;;25.00;99.90;;;;;;5042975;28;20219;-75
2022/06/03 09:49:50;;;;;;;987.13;921.25;;;24.40;99.90;;;;;;5021374;28;20218;-77
2022/06/03 09:52:20;;;;;;;1004.70;937.33;;;24.10;99.90;;;;;;5023188;28;20656;-75
2022/06/03 09:54:47;;;;;;;1000.70;933.65;;;24.10;99.90;;;;;;5027052;28;20174;-77
2022/06/03 09:57:33;;;;;;;986.55;921.05;;;24.60;99.90;;;;;;5025599;28;20648;-74
2022/06/03 10:00:34;;;;;;;959.65;896.25;;;24.80;99.90;;;;;;5024641;28;20275;-77
2022/06/03 10:03:00;;;;;;;984.08;918.55;;;24.40;99.90;;;;;;5019748;28;20663;-75
2022/06/03 10:05:26;;;;;;;991.85;925.47;;;24.40;99.90;;;;;;5030590;28;20237;-76
2022/06/03 10:08:00;;;;;;;991.75;925.85;;;24.10;99.90;;;;;;5033926;28;20238;-74
2022/06/03 10:13:11;;;;;;;992.80;926.45;;;24.00;99.90;;;;;;5026776;28;20285;-78
2022/06/03 10:15:45;;;;;;;992.88;926.67;;;23.80;99.90;;;;;;5032229;28;20422;-78
2022/06/03 10:18:20;;;;;;;976.00;911.47;;;23.70;99.90;;;;;;5025273;28;20186;-74
2022/06/03 10:20:46;;;;;;;985.38;920.20;;;23.90;99.90;;;;;;5035606;28;20182;-74
2022/06/03 10:23:13;;;;;;;997.30;930.60;;;24.20;99.90;;;;;;5040473;28;20201;-77
2022/06/03 10:25:42;;;;;;;1013.17;945.05;;;24.10;99.90;;;;;;5021158;28;20667;-77
2022/06/03 10:28:10;;;;;;;1030.88;960.50;;;24.00;99.90;;;;;;5023479;28;20213;-77
2022/06/03 10:30:41;;;;;;;991.13;924.70;;;24.30;99.90;;;;;;5044821;28;20176;-77
2022/06/03 10:33:27;;;;;;;987.78;921.97;;;24.50;99.90;;;;;;5018293;28;20195;-76
2022/06/03 10:35:57;;;;;;;1008.42;940.60;;;24.70;99.90;;;;;;5021984;28;20203;-78
2022/06/03 10:38:25;;;;;;;1006.00;938.40;;;24.30;99.90;;;;;;5028484;28;20191;-77
2022/06/03 10:40:52;;;;;;;1019.05;949.63;;;24.20;99.90;;;;;;5056401;28;20639;-78
2022/06/03 10:43:24;;;;;;;997.65;930.53;;;24.10;99.90;;;;;;5025098;28;20219;-79
2022/06/03 10:45:50;;;;;;;1008.05;940.35;;;24.30;99.90;;;;;;5024137;28;20217;-78
2022/06/03 10:48:21;;;;;;;1013.10;944.28;;;24.50;99.90;;;;;;5027600;28;20202;-78
2022/06/03 10:50:47;;;;;;;975.92;910.30;;;24.50;99.90;;;;;;5041688;28;20198;-78
2022/06/03 11:01:59;;;;;;;983.72;917.50;;;24.70;99.90;;;;;;5023849;28;20614;-79
2022/06/03 11:04:33;;;;;;;1015.13;946.47;;;24.90;99.90;;;;;;5019578;28;20187;-79
2022/06/03 11:07:02;;;;;;;1009.60;941.30;;;24.90;99.90;;;;;;5016366;28;20289;-78
2022/06/03 11:09:29;;;;;;;991.92;925.33;;;25.00;99.90;;;;;;5021942;28;20182;-76
2022/06/03 11:12:04;;;;;;;959.13;893.88;;;25.00;99.90;;;;;;5033254;28;20588;-76
2022/06/03 11:14:35;;;;;;;1036.07;964.50;;;25.20;99.90;;;;;;5032497;28;20654;-75
2022/06/03 11:17:03;;;;;;;1029.03;958.03;;;24.80;99.90;;;;;;5029708;28;20515;-75
2022/06/03 11:19:36;;;;;;;1012.33;943.50;;;24.80;99.90;;;;;;5021227;28;20210;-76
2022/06/03 11:22:27;;;;;;;1022.67;953.08;;;24.90;99.90;;;;;;5020342;28;20613;-75
2022/06/03 11:25:02;;;;;;;1029.90;959.42;;;25.00;99.90;;;;;;5048295;28;20260;-75
2022/06/03 11:27:46;;;;;;;1035.05;963.70;;;24.80;99.90;;;;;;5031915;28;20209;-75
2022/06/03 11:30:34;;;;;;;1010.50;941.58;;;24.80;99.90;;;;;;5031542;28;20740;-75
2022/06/03 11:33:23;;;;;;;1018.38;948.80;;;24.90;99.90;;;;;;5029522;28;20197;-76
2022/06/03 11:36:02;;;;;;;1038.10;966.20;;;24.70;99.90;;;;;;5032669;28;20191;-74
2022/06/03 11:38:35;;;;;;;1030.25;959.40;;;24.50;99.90;;;;;;5033432;28;20193;-74
2022/06/03 11:41:07;;;;;;;1030.32;959.58;;;24.60;99.90;;;;;;5025026;28;20727;-76
2022/06/03 11:43:43;;;;;;;1028.93;958.58;;;24.80;99.90;;;;;;5023315;28;20222;-74
2022/06/03 11:46:15;;;;;;;1019.33;949.22;;;24.90;99.90;;;;;;5045197;28;20550;-74
2022/06/03 11:48:43;;;;;;;1031.50;960.80;;;24.80;99.90;;;;;;5033004;28;20214;-73
2022/06/03 11:51:11;;;;;;;1022.70;952.33;;;25.00;99.90;;;;;;5044872;28;20664;-76
2022/06/03 11:53:47;;;;;;;1003.28;935.08;;;25.20;99.90;;;;;;5024891;28;20187;-74
2022/06/03 11:56:20;;;;;;;989.75;922.70;;;25.60;99.90;;;;;;5032900;28;20574;-76
2022/06/03 11:58:59;;;;;;;1012.08;942.35;;;25.60;99.90;;;;;;5031748;28;20182;-75
2022/06/03 12:01:32;;;;;;;1013.95;944.38;;;25.40;99.90;;;;;;5046998;28;20217;-74
2022/06/03 12:04:09;;;;;;;1024.10;953.50;;;25.30;99.90;;;;;;5048591;28;20182;-74
2022/06/03 12:06:58;;;;;;;1008.63;940.03;;;25.40;99.90;;;;;;5035893;28;20263;-74
2022/06/03 12:09:37;;;;;;;975.33;909.25;;;25.70;99.90;;;;;;5031496;28;20256;-74
2022/06/03 12:15:33;;;;;;;999.53;931.28;;;25.40;99.90;;;;;;5015731;28;20185;-73
2022/06/03 12:18:11;;;;;;;1018.30;948.35;;;25.60;99.90;;;;;;5021510;28;20301;-74
2022/06/03 12:20:52;;;;;;;1021.28;951.15;;;25.60;99.90;;;;;;5029498;28;20182;-74
2022/06/03 12:23:17;;;;;;;1020.10;949.92;;;25.40;99.90;;;;;;5026337;28;20556;-75
2022/06/03 12:25:49;;;;;;;1036.97;965.15;;;25.50;99.90;;;;;;5032251;28;20198;-74
2022/06/03 12:28:32;;;;;;;1016.00;946.25;;;25.50;99.90;;;;;;5028663;28;20199;-74
2022/06/03 12:31:01;;;;;;;1028.20;957.63;;;25.60;99.90;;;;;;5024896;28;20183;-73
2022/06/03 12:34:07;;;;;;;1038.43;966.65;;;25.80;99.90;;;;;;5026644;28;20187;-75
2022/06/03 12:36:36;;;;;;;1015.47;946.30;;;26.00;99.90;;;;;;5037264;28;20608;-74
2022/06/03 12:39:05;;;;;;;997.28;929.97;;;26.20;99.90;;;;;;5029101;28;20183;-75
2022/06/03 12:41:46;;;;;;;1005.00;936.55;;;26.20;99.90;;;;;;5046235;28;20205;-74
2022/06/03 12:44:33;;;;;;;999.78;932.10;;;26.00;99.90;;;;;;5032242;28;20193;-74
2022/06/03 12:47:18;;;;;;;1014.75;945.20;;;26.10;99.90;;;;;;5029164;28;20205;-74
2022/06/03 12:49:44;;;;;;;999.20;931.38;;;26.00;99.90;;;;;;5031256;28;20195;-74
2022/06/03 12:52:22;;;;;;;988.83;922.45;;;26.10;99.90;;;;;;5037714;28;20286;-76
2022/06/03 12:54:56;;;;;;;1011.58;942.40;;;25.80;99.90;;;;;;5027698;28;20554;-75
2022/06/03 12:57:30;;;;;;;995.50;927.90;;;25.70;99.90;;;;;;5038568;28;20194;-75
2022/06/03 13:00:02;;;;;;;999.58;931.75;;;25.90;99.90;;;;;;5028084;28;20179;-73
2022/06/03 13:02:34;;;;;;;1009.95;941.10;;;26.00;99.90;;;;;;5047059;28;20530;-74
2022/06/03 13:05:10;;;;;;;1013.13;943.85;;;25.80;99.90;;;;;;5031940;28;20652;-74
2022/06/03 13:07:54;;;;;;;1030.90;959.50;;;25.80;99.90;;;;;;5031143;28;20666;-75
2022/06/03 13:10:24;;;;;;;1028.07;957.25;;;25.60;99.90;;;;;;5031184;28;20747;-74
2022/06/03 13:12:52;;;;;;;1032.97;961.53;;;25.60;99.90;;;;;;5014697;28;20301;-74
2022/06/03 13:15:20;;;;;;;1029.65;958.00;;;25.80;99.90;;;;;;5020473;28;20193;-73
2022/06/03 13:18:10;;;;;;;1033.32;961.15;;;25.70;99.90;;;;;;5031814;28;20194;-75
2022/06/03 13:20:44;;;;;;;1027.75;956.67;;;25.90;99.90;;;;;;5028268;28;20266;-74
2022/06/03 13:23:29;;;;;;;1018.28;948.70;;;26.20;99.90;;;;;;5024531;28;20191;-73
2022/06/03 13:26:15;;;;;;;1020.38;950.35;;;26.30;99.90;;;;;;5020515;28;20189;-74
2022/06/03 13:28:43;;;;;;;1004.72;936.92;;;26.20;99.90;;;;;;5032018;28;20190;-73
2022/06/03 13:31:12;;;;;;;1033.65;962.03;;;26.10;99.90;;;;;;5023948;28;20674;-74
2022/06/03 13:34:08;;;;;;;1031.55;959.42;;;26.20;99.90;;;;;;5025973;28;20201;-73
2022/06/03 13:36:38;;;;;;;1020.47;950.95;;;26.20;99.90;;;;;;5024637;28;20198;-74
2022/06/03 13:39:07;;;;;;;1023.00;952.83;;;26.20;99.90;;;;;;5031356;28;20550;-73
2022/06/03 13:44:41;;;;;;;1014.88;945.20;;;26.40;99.90;;;;;;5032402;28;20631;-73